Time;durP1;ratioP1;P1;durP2;ratioP2;P2;SDS_P1;SDS_P2;PMS_P1;PMS_P2;Temp;Humidity;BMP_temperature;BMP_pressure;BME280_temperature;BME280_humidity;BME280_pressure;Samples;Min_cycle;Max_cycle;Signal;HPM_P1;HPM_P2
2023/02/10 08:41:51;;;;;;;50.90;25.10;;;;;;;5.23;50.40;98549.03;2083032;28;20890;-58
2023/02/10 08:42:53;;;;;;;52.50;26.45;;;;;;;6.13;48.46;98546.94;2073360;28;20229;-58
2023/02/10 08:43:54;;;;;;;48.42;26.98;;;;;;;5.59;48.61;98541.47;2071266;28;20652;-58
2023/02/10 08:44:56;;;;;;;54.47;27.73;;;;;;;5.64;48.56;98551.88;2070317;28;20193;-58
2023/02/10 08:45:59;;;;;;;50.58;26.15;;;;;;;6.79;47.70;98542.75;2073310;28;20252;-58
2023/02/10 08:47:00;;;;;;;49.92;29.40;;;;;;;7.47;45.36;98540.97;2073497;28;20194;-58
2023/02/10 08:48:02;;;;;;;67.80;28.23;;;;;;;7.66;44.96;98541.78;2070860;28;20240;-58
2023/02/10 08:49:04;;;;;;;48.38;27.80;;;;;;;7.68;45.24;98540.06;2071739;28;20654;-58
2023/02/10 08:50:05;;;;;;;51.05;26.60;;;;;;;7.92;43.74;98546.06;2070322;28;20194;-58
2023/02/10 08:51:09;;;;;;;41.47;25.42;;;;;;;8.15;43.53;98547.69;2069796;28;20208;-59
2023/02/10 08:52:11;;;;;;;49.60;27.90;;;;;;;8.49;42.91;98540.63;2067409;28;20250;-58
2023/02/10 08:53:12;;;;;;;46.47;28.27;;;;;;;8.39;42.71;98540.63;2072768;28;20196;-58
2023/02/10 08:54:14;;;;;;;45.83;27.90;;;;;;;7.68;44.16;98546.97;2072381;28;20201;-58
2023/02/10 08:55:15;;;;;;;44.55;27.52;;;;;;;7.58;43.73;98542.69;2072442;28;20228;-59
2023/02/10 08:56:17;;;;;;;47.10;26.95;;;;;;;7.93;43.74;98537.38;2071487;28;20612;-58
2023/02/10 08:57:19;;;;;;;46.50;26.38;;;;;;;8.06;43.46;98542.53;2069110;28;20876;-58
2023/02/10 08:58:20;;;;;;;53.03;29.15;;;;;;;7.58;43.96;98543.56;2069478;28;20665;-58
2023/02/10 08:59:22;;;;;;;45.70;27.05;;;;;;;8.74;42.85;98532.63;2069682;28;20322;-58
2023/02/10 09:00:23;;;;;;;47.25;29.02;;;;;;;8.70;41.87;98538.72;2069053;28;20197;-58
2023/02/10 09:01:26;;;;;;;50.28;27.85;;;;;;;7.57;43.49;98541.81;2069290;28;20211;-58
2023/02/10 09:02:30;;;;;;;54.00;28.17;;;;;;;6.75;45.38;98541.88;2068866;28;20229;-58
2023/02/10 09:03:31;;;;;;;44.70;26.92;;;;;;;7.37;44.55;98538.41;2068816;28;20205;-58
2023/02/10 09:04:33;;;;;;;51.10;27.67;;;;;;;7.37;45.07;98541.84;2067815;28;20247;-58
2023/02/10 09:05:36;;;;;;;42.42;25.73;;;;;;;8.13;44.38;98541.63;2067060;28;20267;-58
2023/02/10 09:06:42;;;;;;;54.05;29.95;;;;;;;8.06;44.13;98542.53;2072212;28;20198;-58
2023/02/10 09:07:43;;;;;;;45.45;27.50;;;;;;;8.25;43.66;98543.31;2073612;28;20251;-58
2023/02/10 09:08:47;;;;;;;41.95;26.30;;;;;;;8.04;43.48;98542.53;2072317;28;20297;-59
2023/02/10 09:09:48;;;;;;;48.13;27.33;;;;;;;8.40;44.02;98552.78;2072458;28;20225;-60
2023/02/10 09:10:50;;;;;;;47.70;26.52;;;;;;;8.29;43.61;98548.50;2071495;28;20530;-61
2023/02/10 09:11:53;;;;;;;48.83;27.80;;;;;;;8.83;42.54;98549.94;2069114;28;20187;-60
2023/02/10 09:12:54;;;;;;;45.63;29.40;;;;;;;8.79;43.63;98553.44;2070670;28;20743;-60
2023/02/10 09:13:57;;;;;;;45.88;26.55;;;;;;;9.75;41.60;98555.16;2068492;28;20201;-60
2023/02/10 09:14:58;;;;;;;47.88;27.35;;;;;;;10.18;40.71;98544.22;2071535;28;20225;-60
2023/02/10 09:16:00;;;;;;;47.58;27.48;;;;;;;10.45;40.20;98556.09;2072469;28;20209;-61
2023/02/10 09:17:02;;;;;;;42.85;26.02;;;;;;;10.77;39.69;98557.38;2070320;28;20194;-61
2023/02/10 09:18:04;;;;;;;53.25;28.73;;;;;;;9.83;40.98;98550.75;2070392;28;20226;-61
2023/02/10 09:19:06;;;;;;;40.70;27.05;;;;;;;10.21;40.65;98565.09;2072985;28;20289;-60
2023/02/10 09:20:07;;;;;;;47.58;26.33;;;;;;;10.52;39.50;98556.88;2070921;28;20203;-61
2023/02/10 09:21:09;;;;;;;40.13;26.48;;;;;;;10.78;39.23;98555.66;2071411;28;20198;-61
2023/02/10 09:22:10;;;;;;;40.67;25.15;;;;;;;10.24;40.15;98559.81;2070152;28;20350;-61
2023/02/10 09:23:12;;;;;;;39.65;25.27;;;;;;;10.68;39.47;98565.34;2069344;28;20697;-61
2023/02/10 09:24:14;;;;;;;33.72;21.05;;;;;;;10.92;38.44;98565.88;2071560;28;20643;-60
2023/02/10 09:25:16;;;;;;;40.58;22.48;;;;;;;11.41;37.73;98569.44;2070870;28;20203;-61
2023/02/10 09:26:17;;;;;;;40.33;23.17;;;;;;;11.33;37.91;98564.34;2070243;28;20195;-61
2023/02/10 09:27:19;;;;;;;35.83;22.00;;;;;;;10.70;38.59;98565.31;2071175;28;20240;-60
2023/02/10 09:28:21;;;;;;;39.65;22.95;;;;;;;10.06;39.75;98573.97;2069521;28;20205;-60
2023/02/10 09:29:22;;;;;;;34.47;22.38;;;;;;;10.23;40.01;98568.56;2070217;28;20206;-60
2023/02/10 09:30:27;;;;;;;41.17;23.85;;;;;;;10.28;40.15;98564.13;2071632;28;20224;-60
2023/02/10 09:31:28;;;;;;;41.00;22.10;;;;;;;10.41;39.74;98563.97;2070962;28;20222;-60
2023/02/10 09:32:30;;;;;;;37.28;24.52;;;;;;;11.68;38.58;98554.13;2069252;28;20241;-60
2023/02/10 09:33:32;;;;;;;40.15;24.30;;;;;;;10.94;39.73;98562.34;2075493;28;20206;-60
2023/02/10 09:34:33;;;;;;;35.50;22.35;;;;;;;10.85;39.06;98557.25;2073951;28;20218;-60
2023/02/10 09:35:35;;;;;;;34.88;21.90;;;;;;;11.30;38.80;98563.50;2075483;28;20198;-61
2023/02/10 09:36:37;;;;;;;42.05;23.45;;;;;;;11.57;38.80;98560.41;2067407;28;20670;-60
2023/02/10 09:37:38;;;;;;;37.90;22.42;;;;;;;11.27;39.75;98564.44;2069565;28;20724;-60
2023/02/10 09:38:40;;;;;;;37.65;22.80;;;;;;;11.11;40.41;98558.63;2069545;28;20203;-60
2023/02/10 09:39:42;;;;;;;37.97;22.52;;;;;;;11.57;39.14;98563.03;2070153;28;20198;-60
2023/02/10 09:40:49;;;;;;;41.28;22.83;;;;;;;12.02;38.87;98556.13;2073139;28;20657;-60
2023/02/10 09:42:08;;;;;;;33.45;20.73;;;;;;;11.88;37.15;98556.34;2069476;28;20310;-60
2023/02/10 09:43:55;;;;;;;33.75;21.15;;;;;;;12.44;37.06;98563.13;2068728;28;20226;-60
2023/02/10 09:45:06;;;;;;;32.50;19.05;;;;;;;12.96;36.12;98561.06;2064231;28;20202;-60
2023/02/10 09:46:20;;;;;;;36.97;20.35;;;;;;;12.75;35.97;98555.44;2069567;28;20199;-60
2023/02/10 09:48:00;;;;;;;31.58;19.17;;;;;;;12.26;36.14;98567.84;2070443;28;20223;-60
2023/02/10 09:49:33;;;;;;;31.80;20.40;;;;;;;12.70;35.76;98562.53;2076799;28;20202;-60
2023/02/10 09:50:59;;;;;;;32.30;19.13;;;;;;;11.80;36.31;98561.75;2055321;28;20204;-60
2023/02/10 09:52:06;;;;;;;33.53;19.50;;;;;;;11.92;36.83;98566.75;2068870;28;20221;-60
2023/02/10 09:53:13;;;;;;;35.65;20.52;;;;;;;11.41;36.64;98548.50;2068526;28;20259;-59
2023/02/10 09:54:16;;;;;;;34.92;20.80;;;;;;;11.80;36.76;98559.13;2065762;28;20658;-60
2023/02/10 09:55:26;;;;;;;42.15;21.10;;;;;;;12.06;36.59;98558.66;2065554;28;20638;-60
2023/02/10 09:56:29;;;;;;;37.42;22.17;;;;;;;11.38;36.94;98543.34;2067213;28;20206;-60
2023/02/10 09:57:41;;;;;;;46.25;22.65;;;;;;;11.89;37.00;98564.19;2065439;28;20221;-60
2023/02/10 09:58:48;;;;;;;36.25;20.83;;;;;;;11.75;36.71;98550.50;2063514;28;20616;-59
2023/02/10 09:59:53;;;;;;;31.48;19.05;;;;;;;11.00;37.27;98558.78;2061899;28;20213;-59
2023/02/10 10:01:18;;;;;;;36.50;22.63;;;;;;;11.09;38.04;98560.38;2065295;28;20197;-60
2023/02/10 10:02:33;;;;;;;36.10;21.67;;;;;;;10.49;38.26;98549.09;2065420;28;20241;-59
2023/02/10 10:03:43;;;;;;;37.22;20.33;;;;;;;11.00;37.71;98547.47;2064058;28;20203;-57
2023/02/10 10:04:45;;;;;;;33.90;17.90;;;;;;;10.63;37.22;98551.50;2063446;28;20202;-58
2023/02/10 10:06:19;;;;;;;34.42;18.55;;;;;;;11.50;37.45;98564.03;2063321;28;20914;-58
2023/02/10 10:07:31;;;;;;;37.30;19.50;;;;;;;12.00;36.94;98564.00;2061821;28;20210;-57
2023/02/10 10:08:38;;;;;;;41.28;20.30;;;;;;;11.81;36.31;98567.81;2064929;28;20210;-58
2023/02/10 10:09:46;;;;;;;31.98;18.98;;;;;;;12.56;35.65;98566.31;2062385;28;20210;-57
2023/02/10 10:10:50;;;;;;;37.05;19.75;;;;;;;12.01;35.74;98568.34;2062653;28;20207;-58
2023/02/10 10:11:53;;;;;;;30.45;17.98;;;;;;;12.14;34.95;98565.47;2063068;28;20247;-57
2023/02/10 10:12:55;;;;;;;31.52;17.45;;;;;;;12.01;35.58;98551.78;2062816;28;20253;-57
2023/02/10 10:13:57;;;;;;;32.90;18.63;;;;;;;11.39;35.59;98566.84;2066813;28;20246;-57
2023/02/10 10:14:58;;;;;;;30.23;17.13;;;;;;;11.84;35.28;98571.25;2068019;28;20535;-57
2023/02/10 10:16:05;;;;;;;27.67;16.73;;;;;;;12.32;34.42;98570.34;2066094;28;20239;-57
2023/02/10 10:17:32;;;;;;;26.42;15.75;;;;;;;11.84;34.40;98573.88;2065014;28;20199;-57
2023/02/10 10:18:49;;;;;;;29.95;16.20;;;;;;;10.86;36.02;98568.59;2064707;28;20239;-57
2023/02/10 10:20:11;;;;;;;28.23;15.70;;;;;;;11.18;36.21;98575.06;2063282;28;20211;-57
2023/02/10 10:21:25;;;;;;;26.17;15.02;;;;;;;11.69;35.60;98568.94;2061687;28;20731;-57
2023/02/10 10:22:42;;;;;;;28.33;16.05;;;;;;;11.80;35.33;98569.59;2065710;28;20300;-57
2023/02/10 10:24:12;;;;;;;33.80;17.17;;;;;;;11.71;35.30;98567.16;2065710;28;20206;-57
2023/02/10 10:25:22;;;;;;;33.92;16.10;;;;;;;11.73;34.58;98575.81;2064104;28;20618;-58
2023/02/10 10:26:45;;;;;;;30.77;17.42;;;;;;;11.96;34.36;98580.69;2063398;28;20690;-57
2023/02/10 10:28:09;;;;;;;30.90;16.58;;;;;;;11.95;34.16;98578.03;2065394;28;20265;-57
2023/02/10 10:29:23;;;;;;;26.88;15.75;;;;;;;11.89;34.36;98576.41;2063961;28;20222;-57
2023/02/10 10:30:47;;;;;;;28.58;16.40;;;;;;;12.21;33.84;98572.31;2060508;28;20551;-57
2023/02/10 10:31:56;;;;;;;30.73;16.17;;;;;;;12.40;34.28;98572.78;2055648;28;20211;-57
2023/02/10 10:33:26;;;;;;;30.05;15.75;;;;;;;13.01;33.32;98577.56;2062371;28;20668;-57
2023/02/10 10:34:29;;;;;;;27.85;15.43;;;;;;;12.32;33.77;98570.34;2064038;28;20210;-57
2023/02/10 10:35:39;;;;;;;33.42;16.75;;;;;;;12.63;33.57;98579.28;2060339;28;20227;-57
2023/02/10 10:36:46;;;;;;;25.95;14.93;;;;;;;13.14;32.31;98573.75;2064559;28;20280;-57
2023/02/10 10:37:48;;;;;;;32.75;14.95;;;;;;;13.39;32.15;98581.03;2056964;28;20230;-57
2023/02/10 10:38:52;;;;;;;28.60;15.77;;;;;;;13.04;32.67;98575.72;2064079;28;20203;-57
2023/02/10 10:39:59;;;;;;;28.65;16.08;;;;;;;12.73;32.98;98578.19;2063371;28;20824;-57
2023/02/10 10:41:23;;;;;;;28.65;16.38;;;;;;;13.54;32.44;98578.00;2063330;28;20210;-57
2023/02/10 10:42:39;;;;;;;29.20;17.00;;;;;;;13.38;32.87;98577.56;2063763;28;20306;-57
2023/02/10 10:43:47;;;;;;;29.52;17.30;;;;;;;12.89;32.93;98569.06;2060490;28;20842;-57
2023/02/10 10:44:50;;;;;;;30.48;16.80;;;;;;;12.60;33.65;98572.38;2064301;28;20210;-57
2023/02/10 10:46:06;;;;;;;30.33;16.63;;;;;;;11.98;34.09;98564.94;2064910;28;20696;-57
2023/02/10 10:47:27;;;;;;;26.65;15.30;;;;;;;11.91;34.19;98566.78;2065901;28;20211;-57
2023/02/10 10:48:31;;;;;;;31.88;15.20;;;;;;;12.40;34.18;98549.22;2062994;28;20223;-57
2023/02/10 10:49:32;;;;;;;25.00;15.68;;;;;;;13.36;32.91;98558.31;2066665;28;20198;-57
2023/02/10 10:50:34;;;;;;;31.08;17.30;;;;;;;12.74;33.68;98564.19;2067880;28;20214;-57
2023/02/10 10:51:36;;;;;;;36.40;16.52;;;;;;;13.38;33.04;98558.31;2066629;28;20222;-57
2023/02/10 10:52:41;;;;;;;31.58;16.48;;;;;;;13.84;31.52;98543.97;2061173;28;20222;-57
2023/02/10 10:53:57;;;;;;;29.35;16.15;;;;;;;14.14;30.84;98566.78;2064195;28;20236;-58
2023/02/10 10:55:03;;;;;;;22.75;14.75;;;;;;;13.37;31.33;98567.09;2064071;28;20277;-57
2023/02/10 10:56:11;;;;;;;28.80;16.23;;;;;;;13.16;31.71;98565.84;2062849;28;20205;-57
2023/02/10 10:57:17;;;;;;;26.75;14.82;;;;;;;12.99;32.57;98560.97;2062679;28;20226;-58
2023/02/10 10:58:30;;;;;;;27.83;16.83;;;;;;;13.89;31.37;98564.84;2064252;28;20670;-57
2023/02/10 10:59:45;;;;;;;29.17;15.80;;;;;;;14.39;30.72;98552.94;2065685;28;20233;-57
2023/02/10 11:00:51;;;;;;;26.40;15.60;;;;;;;13.69;31.50;98566.25;2063513;28;20199;-57
2023/02/10 11:01:53;;;;;;;28.38;15.18;;;;;;;13.71;31.66;98563.56;2065295;28;20206;-57
2023/02/10 11:02:58;;;;;;;31.58;17.02;;;;;;;13.95;31.28;98553.31;2061896;28;20674;-57
2023/02/10 11:04:04;;;;;;;29.58;16.42;;;;;;;14.56;30.48;98558.53;2064868;28;20198;-57
2023/02/10 11:05:13;;;;;;;32.42;16.90;;;;;;;14.40;30.44;98563.41;2064338;28;20210;-57
2023/02/10 11:06:17;;;;;;;29.00;15.57;;;;;;;14.44;30.61;98559.75;2063783;28;20199;-59
2023/02/10 11:07:20;;;;;;;36.60;17.00;;;;;;;13.78;31.70;98549.38;2061687;28;20210;-59
2023/02/10 11:08:30;;;;;;;30.45;17.88;;;;;;;13.43;32.24;98553.78;2065999;28;20207;-57
2023/02/10 11:09:35;;;;;;;27.90;16.77;;;;;;;13.65;32.50;98548.84;2065178;28;20214;-57
2023/02/10 11:10:49;;;;;;;32.22;16.73;;;;;;;14.03;32.03;98548.72;2065662;28;20202;-58
2023/02/10 11:11:53;;;;;;;27.40;15.02;;;;;;;13.55;32.27;98542.13;2063925;28;20671;-57
2023/02/10 11:12:57;;;;;;;28.08;15.32;;;;;;;13.65;32.24;98554.09;2064421;28;20226;-57
2023/02/10 11:13:58;;;;;;;30.30;16.92;;;;;;;13.18;32.99;98553.53;2064711;28;20199;-57
2023/02/10 11:15:01;;;;;;;27.85;15.13;;;;;;;13.64;32.24;98552.38;2062936;28;20239;-57
2023/02/10 11:16:04;;;;;;;32.17;17.45;;;;;;;12.77;32.62;98552.78;2061968;28;20204;-59
2023/02/10 11:17:35;;;;;;;25.60;15.75;;;;;;;13.24;32.69;98558.63;2064268;28;20277;-59
2023/02/10 11:18:36;;;;;;;30.05;17.45;;;;;;;14.26;32.11;98552.41;2064489;28;20742;-57
2023/02/10 11:19:40;;;;;;;32.35;16.42;;;;;;;14.45;31.59;98555.34;2062727;28;20217;-57
2023/02/10 11:20:59;;;;;;;34.70;16.48;;;;;;;14.93;31.32;98544.28;2063405;28;20640;-57
2023/02/10 11:22:01;;;;;;;32.83;18.08;;;;;;;14.85;31.01;98549.78;2064891;28;20231;-57
2023/02/10 11:23:14;;;;;;;27.00;16.10;;;;;;;14.91;30.94;98547.88;2063654;28;20322;-57
2023/02/10 11:24:26;;;;;;;29.02;16.13;;;;;;;14.83;31.08;98546.34;2065361;28;20199;-57
2023/02/10 11:25:32;;;;;;;29.25;16.75;;;;;;;15.59;29.95;98520.16;2063481;28;20195;-58
2023/02/10 11:26:33;;;;;;;29.73;16.45;;;;;;;12.64;32.49;98553.03;2064017;28;20199;-59
2023/02/10 11:27:34;;;;;;;27.13;16.33;;;;;;;12.93;32.71;98555.91;2063120;28;20234;-59
2023/02/10 11:28:36;;;;;;;29.38;15.65;;;;;;;13.45;32.19;98554.63;2065176;28;20230;-59
2023/02/10 11:29:47;;;;;;;27.75;16.73;;;;;;;13.26;32.21;98542.88;2061679;28;20657;-59
2023/02/10 11:30:56;;;;;;;26.88;16.45;;;;;;;13.46;32.15;98558.09;2063863;28;20720;-59
2023/02/10 11:31:59;;;;;;;28.35;16.58;;;;;;;13.77;32.00;98562.56;2064938;28;20198;-60
2023/02/10 11:33:02;;;;;;;28.08;16.55;;;;;;;13.54;32.13;98551.75;2064002;28;20257;-59
2023/02/10 11:34:22;;;;;;;27.52;15.45;;;;;;;13.58;33.10;98554.31;2063291;28;20204;-59
2023/02/10 11:35:25;;;;;;;28.85;17.40;;;;;;;13.80;32.56;98552.84;2061940;28;20664;-59
2023/02/10 11:36:37;;;;;;;35.58;17.98;;;;;;;13.68;32.31;98556.63;2060052;28;20598;-59
2023/02/10 11:37:39;;;;;;;29.80;16.73;;;;;;;13.77;32.59;98547.66;2062852;28;20582;-59
2023/02/10 11:38:40;;;;;;;30.45;17.65;;;;;;;13.78;32.41;98536.25;2065819;28;20884;-59
2023/02/10 11:39:44;;;;;;;29.98;17.45;;;;;;;14.08;32.36;98538.06;2065081;28;20203;-60
2023/02/10 11:41:00;;;;;;;25.63;16.30;;;;;;;14.49;32.39;98549.97;2064510;28;20261;-59
2023/02/10 11:42:11;;;;;;;29.30;17.10;;;;;;;14.99;32.36;98545.84;2064266;28;20211;-60
2023/02/10 11:43:15;;;;;;;31.80;16.67;;;;;;;15.49;31.29;98538.03;2061503;28;20238;-59
2023/02/10 11:44:25;;;;;;;28.17;16.10;;;;;;;15.09;31.31;98546.41;2066070;28;20192;-59
2023/02/10 11:45:32;;;;;;;27.15;15.25;;;;;;;14.75;31.56;98542.22;2067164;28;20641;-59
2023/02/10 11:46:33;;;;;;;30.23;17.98;;;;;;;14.32;31.81;98546.97;2063040;28;20195;-60
2023/02/10 11:47:34;;;;;;;31.25;16.73;;;;;;;13.74;32.59;98545.13;2066055;28;20222;-59
2023/02/10 11:48:36;;;;;;;32.72;16.17;;;;;;;14.33;31.70;98551.34;2065222;28;20205;-59
2023/02/10 11:49:44;;;;;;;28.60;17.05;;;;;;;14.43;32.30;98534.38;2063807;28;20218;-59
2023/02/10 11:50:45;;;;;;;28.58;17.00;;;;;;;14.64;31.95;98539.88;2063640;28;20206;-59
2023/02/10 11:51:52;;;;;;;36.50;16.40;;;;;;;14.94;31.68;98538.09;2061197;28;20214;-59
2023/02/10 11:52:54;;;;;;;31.73;18.00;;;;;;;14.43;32.12;98547.53;2063417;28;20219;-59
2023/02/10 11:53:57;;;;;;;28.55;16.83;;;;;;;14.94;32.18;98545.13;2061924;28;20870;-60
2023/02/10 11:54:58;;;;;;;27.05;16.20;;;;;;;15.21;31.58;98543.38;2062627;28;20277;-59
2023/02/10 11:56:12;;;;;;;27.48;15.95;;;;;;;14.32;31.69;98539.09;2063007;28;20252;-60
2023/02/10 11:59:01;;;;;;;27.20;15.70;;;;;;;13.80;33.45;98541.47;2066822;28;20715;-60
2023/02/10 12:00:12;;;;;;;29.80;16.02;;;;;;;15.20;32.00;98546.91;2061918;28;20236;-60
2023/02/10 12:01:24;;;;;;;27.45;16.02;;;;;;;15.64;31.05;98538.41;2062447;28;20204;-59
2023/02/10 12:02:51;;;;;;;27.73;16.50;;;;;;;14.79;32.03;98544.72;2063576;28;20354;-59
2023/02/10 12:04:12;;;;;;;26.88;15.27;;;;;;;15.33;31.31;98544.72;2056888;28;20661;-60
2023/02/10 12:05:29;;;;;;;29.15;15.60;;;;;;;14.98;31.50;98530.97;2065823;28;20199;-60
2023/02/10 12:07:01;;;;;;;29.33;15.88;;;;;;;14.58;32.10;98543.59;2064273;28;20198;-60
2023/02/10 12:08:29;;;;;;;29.27;16.40;;;;;;;14.44;32.17;98537.91;2055044;28;20231;-60
2023/02/10 12:09:41;;;;;;;26.60;16.30;;;;;;;14.36;32.39;98541.59;2063332;28;20288;-59
2023/02/10 12:11:11;;;;;;;31.02;16.63;;;;;;;13.95;32.26;98529.66;2072861;28;20235;-59
2023/02/10 12:12:36;;;;;;;30.75;16.20;;;;;;;15.33;31.02;98524.53;2062770;28;20207;-60
2023/02/10 12:13:59;;;;;;;28.92;17.10;;;;;;;15.85;30.88;98515.75;2061452;28;20191;-60
2023/02/10 12:15:34;;;;;;;31.25;17.02;;;;;;;15.75;31.29;98519.59;2062900;28;20820;-59
2023/02/10 12:16:48;;;;;;;32.47;17.25;;;;;;;15.26;30.99;98522.16;2049822;28;20239;-60
2023/02/10 12:18:06;;;;;;;31.50;17.30;;;;;;;14.63;31.84;98510.13;2065153;28;20244;-60
2023/02/10 12:19:28;;;;;;;29.42;16.50;;;;;;;15.66;31.39;98523.41;2065434;28;20198;-60
2023/02/10 12:20:42;;;;;;;33.70;19.02;;;;;;;15.31;31.29;98523.72;2062960;28;20214;-59
2023/02/10 12:21:58;;;;;;;27.90;18.50;;;;;;;15.65;31.39;98511.16;2065297;28;20828;-60
2023/02/10 12:23:29;;;;;;;33.60;17.65;;;;;;;15.18;32.34;98530.31;2061884;28;20219;-60
2023/02/10 12:24:55;;;;;;;34.45;18.52;;;;;;;15.05;32.82;98527.22;2063652;28;20203;-59
2023/02/10 12:26:02;;;;;;;43.28;19.38;;;;;;;15.48;31.88;98514.41;2061767;28;20187;-60
2023/02/10 12:27:08;;;;;;;29.30;17.92;;;;;;;15.30;32.10;98503.59;2062392;28;20204;-60
2023/02/10 12:28:20;;;;;;;30.70;18.77;;;;;;;14.95;32.02;98515.28;2061989;28;20298;-60
2023/02/10 12:29:27;;;;;;;35.95;19.35;;;;;;;15.45;31.84;98512.72;2063897;28;20846;-59
2023/02/10 12:30:52;;;;;;;30.17;18.35;;;;;;;15.38;32.33;98511.22;2061680;28;20238;-59
2023/02/10 12:32:03;;;;;;;38.67;19.17;;;;;;;15.51;31.32;98496.72;2064666;28;20341;-59
2023/02/10 12:33:23;;;;;;;33.15;20.10;;;;;;;13.68;32.96;98522.50;2065428;28;20260;-60
2023/02/10 12:34:59;;;;;;;29.80;17.75;;;;;;;15.06;32.53;98518.44;2056930;28;20199;-60
2023/02/10 12:36:06;;;;;;;29.48;16.65;;;;;;;14.47;32.54;98508.88;2055959;28;20207;-59
2023/02/10 12:37:35;;;;;;;34.28;18.35;;;;;;;14.29;32.93;98515.56;2063480;28;20224;-60
2023/02/10 12:39:19;;;;;;;30.48;17.05;;;;;;;13.92;33.17;98514.00;2065980;28;20309;-60
2023/02/10 12:40:47;;;;;;;34.22;19.90;;;;;;;14.39;33.24;98510.88;2055540;28;20941;-60
2023/02/10 12:42:18;;;;;;;34.90;19.05;;;;;;;14.89;32.64;98513.72;2062981;28;20199;-60
2023/02/10 12:43:29;;;;;;;36.65;19.55;;;;;;;14.54;33.63;98513.88;2056050;28;20227;-60
2023/02/10 12:44:58;;;;;;;30.23;18.70;;;;;;;15.00;32.44;98510.75;2061946;28;20703;-60
2023/02/10 12:46:17;;;;;;;36.53;19.40;;;;;;;13.30;33.24;98499.91;2063070;28;20203;-59
2023/02/10 12:47:31;;;;;;;40.45;19.85;;;;;;;13.80;33.43;98495.06;2061402;28;20210;-60
2023/02/10 12:48:57;;;;;;;35.60;19.50;;;;;;;14.12;33.32;98503.78;2063511;28;20207;-60
2023/02/10 12:50:30;;;;;;;36.63;19.50;;;;;;;13.71;33.40;98492.69;2062258;28;20202;-60
2023/02/10 12:52:04;;;;;;;31.15;18.45;;;;;;;13.20;33.92;98500.16;2061037;28;20222;-60
2023/02/10 12:53:14;;;;;;;35.72;20.45;;;;;;;12.93;34.38;98488.59;2059619;28;20227;-59
2023/02/10 12:54:26;;;;;;;38.63;21.73;;;;;;;12.76;35.11;98482.88;2063091;28;20269;-59
2023/02/10 12:56:22;;;;;;;31.48;18.52;;;;;;;13.32;34.58;98495.47;2062400;28;20199;-59
2023/02/10 12:57:32;;;;;;;30.00;17.95;;;;;;;14.14;34.07;98490.59;2058858;28;20741;-59
2023/02/10 12:58:44;;;;;;;33.20;20.15;;;;;;;14.08;33.54;98446.13;2063121;28;20214;-59
2023/02/10 12:59:58;;;;;;;39.90;21.60;;;;;;;14.98;33.70;98491.50;2064822;28;20206;-59
2023/02/10 13:01:08;;;;;;;40.47;20.20;;;;;;;15.60;32.37;98495.50;2060830;28;20712;-60
2023/02/10 13:02:30;;;;;;;32.25;19.13;;;;;;;14.52;32.50;98491.19;2060139;28;20209;-59
2023/02/10 13:03:34;;;;;;;38.17;20.40;;;;;;;13.57;33.75;98490.44;2063576;28;20204;-59
2023/02/10 13:04:46;;;;;;;39.58;19.88;;;;;;;11.99;35.64;98491.59;2064917;28;20199;-58
2023/02/10 13:05:59;;;;;;;56.42;29.65;;;;;;;12.91;35.89;98495.63;2063930;28;20202;-59
2023/02/10 13:07:38;;;;;;;37.60;21.23;;;;;;;13.92;34.76;98498.25;2062152;28;20245;-59
2023/02/10 13:08:49;;;;;;;33.67;19.80;;;;;;;14.40;34.43;98494.19;2060616;28;20230;-59
2023/02/10 13:09:55;;;;;;;35.15;20.55;;;;;;;13.87;34.55;98486.09;2064255;28;20250;-59
2023/02/10 13:11:07;;;;;;;34.42;20.35;;;;;;;13.67;33.65;98491.91;2062839;28;20195;-59
2023/02/10 13:12:23;;;;;;;31.48;18.20;;;;;;;13.16;35.52;98498.47;2062084;28;20199;-59
2023/02/10 13:13:32;;;;;;;30.77;18.13;;;;;;;13.25;35.02;98488.66;2063266;28;20255;-59
2023/02/10 13:14:36;;;;;;;46.40;19.10;;;;;;;13.82;34.67;98489.78;2062087;28;20806;-59
2023/02/10 13:15:44;;;;;;;35.15;20.27;;;;;;;14.40;33.83;98484.56;2062350;28;20822;-60
2023/02/10 13:16:52;;;;;;;37.97;19.05;;;;;;;14.53;33.42;98490.28;2064102;28;20195;-59
2023/02/10 13:17:54;;;;;;;37.17;19.17;;;;;;;14.04;33.30;98490.00;2064671;28;20254;-59
2023/02/10 13:19:06;;;;;;;35.60;19.35;;;;;;;13.15;33.96;98490.66;2063189;28;20191;-59
2023/02/10 13:20:45;;;;;;;39.28;19.90;;;;;;;11.54;36.05;98488.97;2069804;28;20542;-59
2023/02/10 13:21:54;;;;;;;34.83;18.95;;;;;;;12.28;35.79;98489.22;2065937;28;20230;-60
2023/02/10 13:23:29;;;;;;;31.75;19.05;;;;;;;13.76;34.74;98498.66;2060862;28;20568;-60
2023/02/10 13:24:42;;;;;;;38.60;21.05;;;;;;;13.19;34.01;98487.94;2064467;28;20202;-60
2023/02/10 13:26:13;;;;;;;36.63;17.42;;;;;;;13.68;34.30;98491.00;2066214;28;20869;-60
2023/02/10 13:27:26;;;;;;;39.47;19.40;;;;;;;14.39;33.68;98484.63;2066869;28;20206;-60
2023/02/10 13:28:54;;;;;;;37.35;20.75;;;;;;;14.50;34.00;98490.38;2061957;28;20200;-60
2023/02/10 13:30:02;;;;;;;35.72;19.50;;;;;;;14.47;33.67;98485.22;2064622;28;20530;-60
2023/02/10 13:31:30;;;;;;;35.13;18.75;;;;;;;15.05;33.39;98476.41;2067776;28;20198;-59
2023/02/10 13:32:42;;;;;;;35.22;20.23;;;;;;;14.29;33.71;98478.78;2062848;28;20218;-59
2023/02/10 13:33:56;;;;;;;38.50;21.25;;;;;;;14.76;33.14;98486.09;2068532;28;20198;-59
2023/02/10 13:35:00;;;;;;;37.80;20.55;;;;;;;15.01;33.06;98494.91;2065059;28;20194;-60
2023/02/10 13:36:05;;;;;;;32.97;19.90;;;;;;;14.75;32.94;98487.84;2067155;28;20238;-60
2023/02/10 13:37:21;;;;;;;36.00;20.42;;;;;;;14.59;33.12;98490.09;2064225;28;20626;-59
2023/02/10 13:38:29;;;;;;;32.00;18.83;;;;;;;14.77;33.46;98486.03;2064441;28;20223;-60
2023/02/10 13:39:31;;;;;;;33.05;18.23;;;;;;;15.03;33.13;98481.69;2065365;28;20206;-60
2023/02/10 13:40:46;;;;;;;34.28;19.85;;;;;;;14.74;33.11;98488.78;2062570;28;20195;-60
2023/02/10 13:41:50;;;;;;;33.85;19.65;;;;;;;14.72;33.08;98484.50;2066589;28;20616;-60
2023/02/10 13:42:58;;;;;;;33.40;19.98;;;;;;;14.88;33.33;98503.25;2065406;28;20245;-60
2023/02/10 13:43:59;;;;;;;36.40;20.25;;;;;;;14.31;33.84;98504.09;2064771;28;20222;-60
2023/02/10 13:45:08;;;;;;;35.20;20.85;;;;;;;14.61;33.71;98487.41;2063537;28;20203;-60
2023/02/10 13:46:26;;;;;;;39.55;21.20;;;;;;;15.27;33.58;98497.56;2066339;28;20195;-60
2023/02/10 13:47:37;;;;;;;41.10;21.95;;;;;;;14.98;33.61;98494.13;2063366;28;20730;-60
2023/02/10 13:48:39;;;;;;;37.40;22.35;;;;;;;15.09;33.17;98493.78;2063969;28;20230;-60
2023/02/10 13:50:00;;;;;;;43.50;22.10;;;;;;;14.66;33.55;98491.63;2066018;28;20207;-60
2023/02/10 13:51:04;;;;;;;40.85;22.02;;;;;;;14.63;33.84;98493.50;2065622;28;20207;-60
2023/02/10 13:52:16;;;;;;;34.90;20.50;;;;;;;14.68;33.02;98489.81;2069523;28;20210;-60
2023/02/10 13:53:35;;;;;;;35.75;23.60;;;;;;;14.69;33.12;98488.94;2061988;28;20314;-60
2023/02/10 13:54:37;;;;;;;35.00;21.00;;;;;;;14.17;33.23;98501.00;2061534;28;20281;-60
2023/02/10 13:55:42;;;;;;;34.58;20.42;;;;;;;13.47;34.25;98492.47;2061420;28;20571;-60
2023/02/10 13:56:52;;;;;;;36.85;21.02;;;;;;;13.77;34.11;98499.53;2067192;28;20202;-60
2023/02/10 13:58:16;;;;;;;34.17;20.65;;;;;;;14.13;33.03;98497.63;2064180;28;20240;-60
2023/02/10 13:59:17;;;;;;;42.50;20.38;;;;;;;14.11;34.31;98501.22;2067106;28;20215;-60
2023/02/10 14:00:23;;;;;;;39.13;21.50;;;;;;;14.04;34.05;98500.50;2063930;28;20638;-60
2023/02/10 14:01:39;;;;;;;39.75;22.00;;;;;;;14.17;34.18;98482.59;2066662;28;20768;-60
2023/02/10 14:02:43;;;;;;;35.92;20.48;;;;;;;14.63;33.44;98498.75;2063950;28;20226;-60
2023/02/10 14:03:55;;;;;;;47.47;21.92;;;;;;;14.52;33.28;98499.06;2065977;28;20233;-61
2023/02/10 14:04:57;;;;;;;40.63;20.90;;;;;;;14.12;32.47;98500.28;2062780;28;20199;-61
2023/02/10 14:06:06;;;;;;;35.40;19.83;;;;;;;14.24;33.24;98492.03;2062483;28;20740;-61
2023/02/10 14:07:35;;;;;;;37.60;19.92;;;;;;;13.79;33.01;98493.34;2062623;28;20240;-61
2023/02/10 14:08:39;;;;;;;30.63;18.38;;;;;;;13.27;34.59;98485.09;2060565;28;20699;-60